Youngwood, Pennsylvania
Current Conditions -  °F | °C
As of 10:35 PM on Monday 20 Oct 2014 (Local Time) from KLBE Reporting Station
Broken Clouds Broken Clouds  
Wind Chill: 52°   Ceiling: 3300
Heat Index: 52°   Visibility: 10mi
Dew Point: 46°   Wind: 6mph
Humidity: 82%   Direction: 190°S
Pressure: 29.91"   Gusts: NA
Location:  40.24°N, 79.58°W
Report Text: KLBE 210235Z AUTO 19005KT 10SM BKN033 BKN039 BKN055 11/08 A2991 RMK A02 P000
Loading
Personal Weather Stations






























Interactive Weather Map
Tropical Storm Tracking
New forecast layout! Learn more

10-Day Weather Forecast

Advertisements
Track Severe Weather on mobile